Main page
METAR-TAF:

METAR-TAF

Airports :

Oran Es Sénia Airport

Oran, Algeria

latitude: 35-38N, longitude: 000-36W, elevation: 90 m

Current weather observation

The report was made 28 minutes ago, at 11:30 UTC
Wind 7 kt from the North, varying between West/Northwest and North/Northeast
Temperature 29°C
Humidity 20%
Pressure 1015 hPa
Visibility 10 km or more
no clouds below 1500 m and no cumulonimbus

METAR: DAOO 161130Z 35007KT 300V020 CAVOK 29/04 Q1015

Time: 12:58 (11:58 UTC)

Forecast

The report was made 58 minutes ago, at 11:00 UTC
Forecast valid from 16 at 12 UTC to 17 at 12 UTC
Wind 10 kt from the West/Southwest
Visibility 10 km or more
no clouds below 1500 m and no cumulonimbus
Becoming
from 16 at 18 UTC to 16 at 21 UTC
Wind 2 kt from variable directions
Becoming
from 17 at 09 UTC to 17 at 12 UTC
Wind 12 kt from the North

TAF: DAOO 161100Z 1612/1712 24010KT CAVOK BECMG 1618/1621 VRB02KT BECMG 1709/1712 35012KT

Weather observations and forecasts of more than 4000 airports (METAR and TAF reports).

The available stations are represented by yellow and red dots on the map.

Hover mouse over dot to see the name of the station.

Then click to see weather observations and forecasts.

To change the map : click on the green buttons with a black cross to zoom in, on the green button with a dash to zoom out, or on the green arrows for adjacent maps.


METAR-TAF: